Overview Statistics Trail Chart Weather Telemetry Raw packets
 

This is the latest recevied weather packets stored in our database for station/object WX5RP. If no packets are shown the sender has not sent any weather packets the latest 10 day(s).

<< 1 2 3 4 >>
Time Temp. Humidity Pressure Rain* Wind** Luminosity Snow
1777989317 5.56° C 80% 1013.4 hPa 0 mm - 128 W/m² -
1777988717 5° C 81% 1013.4 hPa 0 mm - 92 W/m² -
1777988117 3.89° C 82% 1013.5 hPa 0 mm - 65 W/m² -
1777987517 3.33° C 82% 1013.8 hPa 0 mm - 40 W/m² -
1777986917 3.33° C 82% 1013.7 hPa 0 mm - 21 W/m² -
1777986317 3.33° C 81% 1013.2 hPa 0 mm - 12 W/m² -
1777985717 3.89° C 81% 1013 hPa 0 mm - 6 W/m² -
1777985117 3.89° C 81% 1013.3 hPa 0 mm - 0 W/m² -
1777984516 3.89° C 81% 1013.4 hPa 0 mm - 0 W/m² -
1777983917 3.89° C 81% 1013.1 hPa 0 mm - 0 W/m² -
1777983316 3.89° C 81% 1013.4 hPa 0 mm - 0 W/m² -
1777982716 4.44° C 81% 1012.9 hPa 0 mm - 0 W/m² -
1777982117 4.44° C 82% 1012.4 hPa 0 mm - 0 W/m² -
1777981517 4.44° C 83% 1012.7 hPa 0 mm - 0 W/m² -
1777980917 3.89° C 83% 1012.3 hPa 0 mm - 0 W/m² -
1777980316 3.89° C 83% 1012.1 hPa 0 mm - 0 W/m² -
1777979716 3.89° C 83% 1012.1 hPa 0 mm - 0 W/m² -
1777979116 3.89° C 83% 1012.8 hPa 0 mm - 0 W/m² -
1777978516 3.89° C 83% 1012.9 hPa 0 mm - 0 W/m² -
1777977916 4.44° C 83% 1013.5 hPa 0 mm - 0 W/m² -
1777977316 4.44° C 82% 1012.8 hPa 0 mm - 0 W/m² -
1777976716 5° C 82% 1013 hPa 0 mm - 0 W/m² -
1777976116 5.56° C 82% 1013 hPa 0 mm - 0 W/m² -
1777975516 5.56° C 82% 1012.5 hPa 0 mm - 0 W/m² -
1777974916 5.56° C 82% 1012.3 hPa 0 mm - 0 W/m² -

* Rain latest hour (hover to see other rain measurements)
** Current wind speed in m/s (hover to see current wind gust speed)